Green Bush, Kansas
Current Conditions -  °F | °C
As of 11:55 AM on Friday 21 Nov 2014 (Local Time) from KPTS Reporting Station
Light Rain Light Rain  
Wind Chill: 43°   Ceiling: 2900
Heat Index: 47°   Visibility: 5mi
Dew Point: 46°   Wind: 9mph
Humidity: 96%   Direction: 140°SE
Pressure: 30.14"   Gusts: NA
Location:  37.5057°N, 94.9338°W
Report Text: KPTS 211755Z AUTO 14008KT 5SM -RA SCT019 BKN029 OVC075 09/08 A3014 RMK AO2 P0007 T00850079
Loading
Personal Weather Stations






























Interactive Weather Map New forecast layout! Learn more

10-Day Weather Forecast

Advertisements
Track Severe Weather on mobile